Time;durP1;ratioP1;P1;durP2;ratioP2;P2;SDS_P1;SDS_P2;PMS_P1;PMS_P2;Temp;Humidity;BMP_temperature;BMP_pressure;BME280_temperature;BME280_humidity;BME280_pressure;Samples;Min_cycle;Max_cycle;Signal;HPM_P1;HPM_P2
2022/06/26 00:00:22;;;;;;;3.40;2.20;;;;;;;26.47;61.11;98736.84;6072901;23;20152;-94
2022/06/26 00:02:48;;;;;;;3.13;1.67;;;;;;;26.23;59.71;98749.63;6098098;23;20160;-94
2022/06/26 00:05:13;;;;;;;4.60;2.53;;;;;;;25.91;61.31;98750.06;6072722;23;20573;-94
2022/06/26 00:07:39;;;;;;;2.85;1.88;;;;;;;25.52;63.41;98739.59;6072803;23;20157;-94
2022/06/26 00:10:06;;;;;;;4.77;2.20;;;;;;;25.52;64.13;98741.47;6073008;23;20156;-94
2022/06/26 00:12:32;;;;;;;5.77;1.93;;;;;;;25.61;64.77;98751.06;6072722;23;20182;-94
2022/06/26 00:14:58;;;;;;;3.77;1.97;;;;;;;25.70;64.41;98744.59;6097719;23;20148;-94
2022/06/26 00:17:24;;;;;;;4.03;2.00;;;;;;;25.70;64.52;98739.25;6097599;23;20159;-94
2022/06/26 00:19:49;;;;;;;3.77;2.27;;;;;;;25.80;63.55;98741.63;6072687;23;20156;-94
2022/06/26 00:22:15;;;;;;;4.83;2.17;;;;;;;25.90;63.15;98739.47;6097862;23;20152;-94
2022/06/26 00:24:42;;;;;;;4.27;2.43;;;;;;;26.02;62.67;98743.38;6097553;23;20153;-93
2022/06/26 00:27:07;;;;;;;4.17;1.97;;;;;;;26.07;62.47;98749.81;6072434;23;20244;-94
2022/06/26 00:29:33;;;;;;;4.90;1.93;;;;;;;26.11;63.17;98753.81;6097900;23;20153;-94
2022/06/26 00:32:00;;;;;;;4.43;2.57;;;;;;;26.14;62.84;98766.91;6097604;23;20565;-94
2022/06/26 00:34:25;;;;;;;3.87;2.10;;;;;;;26.13;62.72;98759.84;6097563;23;20156;-94
2022/06/26 00:36:51;;;;;;;7.87;2.23;;;;;;;26.16;61.26;98762.16;6072626;23;20604;-95
2022/06/26 00:39:16;;;;;;;4.17;2.10;;;;;;;26.04;60.37;98760.97;6072308;23;20156;-94
2022/06/26 00:41:42;;;;;;;3.43;1.63;;;;;;;26.02;60.82;98762.16;6072534;23;20165;-94
2022/06/26 00:44:17;;;;;;;7.83;2.47;;;;;;;26.03;60.57;98766.50;6097378;23;20168;-94
2022/06/26 00:46:44;;;;;;;4.87;2.10;;;;;;;26.04;59.86;98763.66;6073764;23;20204;-94
2022/06/26 00:49:09;;;;;;;5.87;2.40;;;;;;;26.03;60.25;98764.66;6072480;23;20160;-94
2022/06/26 00:51:38;;;;;;;4.03;2.30;;;;;;;25.95;60.60;98770.13;6072253;23;20611;-94
2022/06/26 00:54:05;;;;;;;4.93;2.47;;;;;;;25.87;60.81;98767.53;6072484;23;20223;-95
2022/06/26 00:56:31;;;;;;;7.97;2.77;;;;;;;25.84;61.09;98765.22;6072579;23;20153;-95
2022/06/26 00:58:57;;;;;;;6.37;2.57;;;;;;;25.80;61.05;98773.84;6072431;23;20577;-94
2022/06/26 01:01:22;;;;;;;5.40;2.33;;;;;;;25.64;63.24;98769.50;6072488;23;20153;-94
2022/06/26 01:03:48;;;;;;;4.00;2.40;;;;;;;25.32;65.40;98767.94;6072412;23;20640;-94
2022/06/26 01:06:13;;;;;;;7.13;2.67;;;;;;;25.33;65.42;98766.94;6072348;23;20726;-94
2022/06/26 01:08:38;;;;;;;5.67;2.60;;;;;;;25.27;65.69;98767.66;6072414;23;20491;-95
2022/06/26 01:11:17;;;;;;;6.47;2.27;;;;;;;25.23;66.64;98768.22;6072622;23;20191;-94
2022/06/26 01:13:47;;;;;;;9.50;2.80;;;;;;;25.23;66.60;98770.91;6072777;23;20272;-94
2022/06/26 01:16:14;;;;;;;6.87;3.17;;;;;;;25.15;67.57;98779.03;6097353;23;20152;-94
2022/06/26 01:18:40;;;;;;;10.90;2.57;;;;;;;25.08;67.46;98776.22;6097227;23;20565;-93
2022/06/26 01:21:05;;;;;;;7.17;2.27;;;;;;;25.06;67.29;98772.91;6097366;23;20152;-94
2022/06/26 01:23:31;;;;;;;5.23;2.60;;;;;;;24.99;67.84;98771.97;6072423;23;20157;-93
2022/06/26 01:25:56;;;;;;;4.70;2.50;;;;;;;24.90;68.12;98787.28;6072075;23;20267;-94
2022/06/26 01:28:22;;;;;;;4.93;2.57;;;;;;;24.78;68.42;98778.00;6097325;23;20189;-95
2022/06/26 01:30:48;;;;;;;3.03;1.90;;;;;;;24.66;69.44;98779.38;6072271;23;20169;-94
2022/06/26 01:33:13;;;;;;;5.87;2.43;;;;;;;24.61;68.86;98784.44;6097193;23;20513;-94
2022/06/26 01:35:39;;;;;;;7.07;2.10;;;;;;;24.40;69.37;98789.59;6097392;23;20224;-94
2022/06/26 01:38:10;;;;;;;4.23;2.17;;;;;;;24.31;69.70;98785.31;6072246;23;20157;-94
2022/06/26 01:40:36;;;;;;;4.47;2.53;;;;;;;24.39;68.98;98788.78;6072178;23;20167;-95
2022/06/26 01:43:02;;;;;;;5.30;2.53;;;;;;;24.37;69.56;98796.13;6072419;23;20160;-94
2022/06/26 01:45:27;;;;;;;4.60;2.47;;;;;;;24.35;69.08;98792.81;6097076;23;20573;-94
2022/06/26 01:47:54;;;;;;;8.93;2.80;;;;;;;24.25;69.58;98802.91;6072333;23;20163;-93
2022/06/26 01:50:20;;;;;;;4.50;2.20;;;;;;;24.20;69.82;98794.56;6097218;23;20152;-94
2022/06/26 01:52:45;;;;;;;10.07;2.33;;;;;;;24.17;69.71;98802.94;6073750;23;20156;-94
2022/06/26 01:55:11;;;;;;;4.50;2.27;;;;;;;24.13;70.57;98803.47;6073927;23;20168;-94
2022/06/26 01:57:36;;;;;;;4.70;1.90;;;;;;;24.00;70.23;98813.88;6099225;23;20285;-93
2022/06/26 02:00:05;;;;;;;4.20;2.37;;;;;;;23.95;70.76;98806.34;6098792;23;20470;-93
2022/06/26 02:02:30;;;;;;;3.77;2.03;;;;;;;23.87;71.24;98813.59;6098931;23;20153;-94
2022/06/26 02:04:56;;;;;;;3.13;2.20;;;;;;;24.00;70.57;98821.91;6073906;23;20195;-93
2022/06/26 02:07:21;;;;;;;3.60;1.97;;;;;;;24.04;70.36;98828.56;6075053;23;20198;-94
2022/06/26 02:15:14;;;;;;;3.70;1.93;;;;;;;23.78;72.28;98832.34;6099146;23;20156;-93
2022/06/26 02:17:40;;;;;;;4.27;2.53;;;;;;;23.79;72.58;98827.84;6099461;23;20190;-93
2022/06/26 02:20:06;;;;;;;5.23;2.40;;;;;;;23.81;72.03;98832.00;6099063;23;20661;-94
2022/06/26 02:22:32;;;;;;;3.33;2.10;;;;;;;23.69;73.32;98836.03;6098696;23;20152;-93
2022/06/26 02:24:57;;;;;;;5.47;1.77;;;;;;;23.75;72.80;98832.69;6073555;23;20160;-94
2022/06/26 02:27:23;;;;;;;2.77;1.80;;;;;;;23.71;72.46;98830.53;6073651;23;20196;-93
2022/06/26 02:29:48;;;;;;;5.50;2.33;;;;;;;23.73;72.59;98829.34;6098674;23;20172;-94
2022/06/26 02:32:13;;;;;;;5.33;2.23;;;;;;;23.71;72.89;98831.38;6073540;23;20156;-94
2022/06/26 02:34:39;;;;;;;4.27;2.00;;;;;;;23.57;73.71;98836.56;6073635;23;20156;-93
2022/06/26 02:37:04;;;;;;;4.80;2.07;;;;;;;23.57;73.59;98836.56;6073508;23;20195;-93
2022/06/26 02:39:30;;;;;;;4.03;2.20;;;;;;;23.49;74.09;98836.56;6073597;23;20510;-93
2022/06/26 02:41:56;;;;;;;4.67;2.30;;;;;;;23.45;74.42;98835.25;6098446;23;20149;-93
2022/06/26 02:44:22;;;;;;;4.13;2.13;;;;;;;23.61;73.66;98836.06;6098421;23;20153;-93
2022/06/26 02:46:47;;;;;;;4.30;2.00;;;;;;;23.59;74.14;98839.91;6073556;23;20194;-93
2022/06/26 02:49:13;;;;;;;4.20;2.13;;;;;;;23.53;73.98;98830.72;6098698;23;20149;-93
2022/06/26 02:51:38;;;;;;;4.47;2.13;;;;;;;23.58;73.82;98831.06;6098646;23;20585;-94
2022/06/26 02:54:03;;;;;;;3.73;2.17;;;;;;;23.45;73.91;98843.28;6073308;23;20227;-94
2022/06/26 02:56:29;;;;;;;6.03;2.13;;;;;;;23.29;74.74;98841.44;6073450;23;20153;-94
2022/06/26 02:58:54;;;;;;;4.23;2.40;;;;;;;23.32;74.67;98854.47;6073294;23;20188;-94
2022/06/26 03:01:20;;;;;;;4.43;2.17;;;;;;;23.31;74.77;98850.13;6098801;23;20160;-93
2022/06/26 03:03:45;;;;;;;5.43;2.60;;;;;;;23.35;75.00;98854.13;6072886;23;20156;-94
2022/06/26 03:06:11;;;;;;;4.17;2.00;;;;;;;23.42;74.77;98851.66;6074190;23;20177;-93
2022/06/26 03:08:37;;;;;;;5.07;2.10;;;;;;;23.33;75.35;98845.44;6098871;23;20188;-94
2022/06/26 03:11:02;;;;;;;5.20;2.47;;;;;;;23.18;76.35;98855.97;6073159;23;20167;-93
2022/06/26 03:13:28;;;;;;;5.40;2.37;;;;;;;23.33;75.48;98853.44;6098029;23;20201;-94
2022/06/26 03:15:53;;;;;;;5.87;3.23;;;;;;;23.38;75.22;98856.50;6073323;23;20167;-93
2022/06/26 03:18:19;;;;;;;5.37;3.00;;;;;;;23.16;77.02;98857.16;6073122;23;20164;-93
2022/06/26 03:20:44;;;;;;;5.23;2.13;;;;;;;22.86;78.97;98863.94;6073075;23;20589;-94
2022/06/26 03:23:10;;;;;;;3.60;2.10;;;;;;;22.96;78.82;98871.81;6073184;23;20164;-94
2022/06/26 03:25:35;;;;;;;3.90;2.50;;;;;;;23.06;78.34;98880.53;6073075;23;20184;-94
2022/06/26 03:28:01;;;;;;;3.70;2.00;;;;;;;23.07;77.40;98880.34;6098034;23;20152;-93
2022/06/26 03:30:26;;;;;;;3.97;2.13;;;;;;;23.20;76.24;98882.53;6097923;23;20210;-93
2022/06/26 03:32:51;;;;;;;4.27;2.03;;;;;;;23.33;75.14;98885.53;6072825;23;20167;-92
2022/06/26 03:35:17;;;;;;;7.03;2.67;;;;;;;23.39;74.63;98884.06;6098248;23;20629;-92
2022/06/26 03:37:43;;;;;;;5.40;2.00;;;;;;;23.44;74.72;98890.59;6098292;23;20569;-92
2022/06/26 03:40:09;;;;;;;3.77;1.77;;;;;;;23.31;75.37;98892.91;6097999;23;20184;-93
2022/06/26 03:42:35;;;;;;;3.87;1.60;;;;;;;23.30;75.31;98888.56;6098318;23;20589;-94
2022/06/26 03:45:00;;;;;;;3.47;2.03;;;;;;;23.24;75.50;98887.38;6073068;23;20191;-93
2022/06/26 03:47:26;;;;;;;4.20;2.10;;;;;;;23.36;75.04;98889.72;6072888;23;20573;-93
2022/06/26 03:49:53;;;;;;;3.23;2.00;;;;;;;23.34;75.41;98897.09;6072903;23;20167;-93
2022/06/26 03:52:23;;;;;;;8.17;1.60;;;;;;;23.37;75.01;98897.63;6073003;23;20156;-94
2022/06/26 03:54:48;;;;;;;2.93;1.60;;;;;;;23.43;74.80;98891.59;6072720;23;20184;-93
2022/06/26 03:57:15;;;;;;;4.40;2.33;;;;;;;23.44;75.34;98882.56;6072621;23;20196;-94
2022/06/26 03:59:41;;;;;;;3.50;2.10;;;;;;;23.57;74.71;98882.91;6072787;23;20573;-91
2022/06/26 04:02:06;;;;;;;4.90;2.47;;;;;;;23.61;74.67;98886.09;6072639;23;20167;-93
2022/06/26 04:04:32;;;;;;;5.67;2.17;;;;;;;23.53;75.86;98881.56;6097676;23;20542;-93
2022/06/26 04:06:57;;;;;;;5.63;2.60;;;;;;;23.55;76.16;98884.91;6097622;23;20184;-92
2022/06/26 04:09:22;;;;;;;3.80;2.27;;;;;;;23.52;76.19;98887.09;6097961;23;20149;-94
2022/06/26 04:11:48;;;;;;;4.77;2.33;;;;;;;23.55;76.16;98876.88;6072413;23;20156;-93
2022/06/26 04:14:13;;;;;;;5.10;2.30;;;;;;;23.61;76.56;98878.06;6072317;23;20488;-93
2022/06/26 04:16:39;;;;;;;7.27;2.83;;;;;;;23.65;75.91;98882.91;6072199;23;20152;-93
2022/06/26 04:19:04;;;;;;;4.40;2.10;;;;;;;23.64;76.08;98880.38;6071612;23;20168;-93
2022/06/26 04:21:30;;;;;;;2.83;1.73;;;;;;;23.57;76.29;98884.72;6071930;23;20486;-93
2022/06/26 04:23:55;;;;;;;4.10;2.00;;;;;;;23.73;75.99;98882.88;6072124;23;20575;-93
2022/06/26 04:26:20;;;;;;;4.70;2.27;;;;;;;23.70;76.13;98882.38;6098065;23;20238;-93
2022/06/26 04:28:46;;;;;;;4.20;2.03;;;;;;;23.73;76.19;98882.88;6072683;23;20163;-93
2022/06/26 04:31:11;;;;;;;7.17;3.03;;;;;;;23.77;75.65;98889.56;6097770;23;20172;-93
2022/06/26 04:33:37;;;;;;;4.83;2.00;;;;;;;23.92;74.93;98884.34;6097788;23;20223;-93
2022/06/26 04:36:02;;;;;;;5.53;2.67;;;;;;;23.91;74.83;98889.88;6097316;23;20179;-93
2022/06/26 04:38:28;;;;;;;5.17;2.80;;;;;;;24.06;74.39;98885.47;6072303;23;20152;-93
2022/06/26 04:40:53;;;;;;;7.10;2.20;;;;;;;24.12;73.84;98890.19;6097511;23;20148;-93
2022/06/26 04:43:19;;;;;;;5.50;2.60;;;;;;;24.13;74.05;98889.19;6097856;23;20556;-93
2022/06/26 04:45:44;;;;;;;4.23;2.50;;;;;;;24.13;74.16;98891.84;6097526;23;20206;-93
2022/06/26 04:48:09;;;;;;;6.37;3.17;;;;;;;24.15;73.65;98903.22;6072260;23;20160;-93
2022/06/26 04:50:35;;;;;;;4.83;2.87;;;;;;;24.19;73.90;98901.84;6072283;23;20574;-93
2022/06/26 04:53:00;;;;;;;6.23;2.90;;;;;;;24.30;74.43;98901.50;6072331;23;20486;-92
2022/06/26 04:55:26;;;;;;;5.23;2.97;;;;;;;24.40;74.15;98910.16;6072476;23;20234;-93
2022/06/26 04:57:51;;;;;;;4.10;2.40;;;;;;;24.48;73.43;98912.81;6097231;23;20492;-93
2022/06/26 05:00:17;;;;;;;5.23;2.70;;;;;;;24.50;74.04;98918.00;6097530;23;20175;-93
2022/06/26 05:02:42;;;;;;;4.47;2.73;;;;;;;24.41;74.86;98914.53;6096607;23;20648;-93
2022/06/26 05:05:08;;;;;;;6.97;3.07;;;;;;;24.51;74.26;98920.50;6072270;23;20199;-93
2022/06/26 05:07:34;;;;;;;5.23;3.10;;;;;;;24.64;73.88;98914.59;6097423;23;20180;-93
2022/06/26 05:09:59;;;;;;;4.33;2.60;;;;;;;24.56;75.02;98917.28;6072387;23;20570;-93
2022/06/26 05:12:26;;;;;;;4.60;2.70;;;;;;;24.68;75.33;98907.88;6072290;23;20184;-94
2022/06/26 05:14:51;;;;;;;6.07;2.70;;;;;;;24.82;74.51;98909.81;6072640;23;20171;-95
2022/06/26 05:17:17;;;;;;;5.00;2.70;;;;;;;24.85;74.77;98913.00;6072945;23;20482;-94
2022/06/26 05:19:42;;;;;;;5.17;2.80;;;;;;;24.98;74.63;98918.63;6097302;23;20156;-94
2022/06/26 05:22:08;;;;;;;4.90;2.53;;;;;;;25.01;74.49;98925.47;6097636;23;20591;-93
2022/06/26 05:24:33;;;;;;;5.23;2.50;;;;;;;24.85;74.48;98929.09;6072925;23;20557;-93
2022/06/26 05:26:59;;;;;;;5.40;2.53;;;;;;;24.91;74.18;98928.38;6074590;23;20489;-94
2022/06/26 05:29:26;;;;;;;7.73;2.57;;;;;;;25.00;73.33;98932.69;6099309;23;20153;-94
2022/06/26 05:31:52;;;;;;;4.03;2.17;;;;;;;24.96;73.35;98939.41;6074801;23;20156;-95
2022/06/26 05:34:18;;;;;;;4.50;2.53;;;;;;;24.98;73.86;98940.06;6074261;23;20525;-95
2022/06/26 05:36:43;;;;;;;10.73;2.97;;;;;;;25.06;73.67;98947.22;6074124;23;20168;-94
2022/06/26 05:39:09;;;;;;;5.47;2.47;;;;;;;25.06;73.78;98944.56;6074004;23;20168;-94
2022/06/26 05:41:35;;;;;;;8.17;2.83;;;;;;;25.03;72.58;98945.75;6073994;23;20156;-95
2022/06/26 05:44:00;;;;;;;4.93;2.60;;;;;;;25.00;73.56;98950.59;6074048;23;20161;-95
2022/06/26 05:46:26;;;;;;;4.57;2.40;;;;;;;25.02;74.56;98945.94;6073714;23;20608;-94
2022/06/26 05:49:30;;;;;;;;;;;;;;;;;;;;;
2022/06/26 05:52:08;;;;;;;5.07;2.73;;;;;;;25.04;74.08;98939.38;6102408;23;20216;-93
2022/06/26 05:54:33;;;;;;;5.00;2.27;;;;;;;24.94;74.31;98945.97;6074709;23;20149;-93
2022/06/26 05:57:02;;;;;;;6.50;2.70;;;;;;;25.09;73.87;98954.94;6075584;23;20236;-93
2022/06/26 06:03:19;;;;;;;5.57;2.90;;;;;;;25.17;73.72;98954.03;6012497;23;20163;-94
2022/06/26 06:06:07;;;;;;;5.60;2.57;;;;;;;25.04;74.19;98955.47;5987563;23;20338;-93
2022/06/26 06:08:33;;;;;;;4.60;2.53;;;;;;;24.99;74.04;98959.69;6074193;23;20149;-94
2022/06/26 06:10:58;;;;;;;8.80;3.07;;;;;;;24.85;73.43;98961.25;6073836;23;20166;-94
2022/06/26 06:13:24;;;;;;;7.27;2.60;;;;;;;24.92;73.72;98962.22;6098350;23;20232;-94
2022/06/26 06:15:49;;;;;;;5.80;2.27;;;;;;;24.77;74.62;98952.38;6074081;23;20160;-93
2022/06/26 06:18:15;;;;;;;7.77;3.63;;;;;;;24.76;75.54;98951.56;6073863;23;20559;-93
2022/06/26 06:20:42;;;;;;;4.77;2.67;;;;;;;24.77;75.52;98953.22;6074105;23;20160;-94
2022/06/26 06:23:08;;;;;;;5.00;2.70;;;;;;;24.66;75.47;98961.63;6072659;23;20214;-84
2022/06/26 06:25:33;;;;;;;5.33;2.50;;;;;;;24.75;76.33;98959.78;6097359;23;20160;-85
2022/06/26 06:28:00;;;;;;;6.20;3.07;;;;;;;24.93;75.36;98953.19;6097335;23;20216;-85
2022/06/26 06:30:25;;;;;;;5.13;2.93;;;;;;;25.14;74.39;98949.03;6098159;23;20152;-85
2022/06/26 06:32:52;;;;;;;4.23;2.63;;;;;;;25.05;74.30;98950.94;6097763;23;20189;-85
2022/06/26 06:35:17;;;;;;;6.07;2.60;;;;;;;24.88;75.06;98950.19;6097835;23;20153;-85
2022/06/26 06:37:44;;;;;;;7.83;3.50;;;;;;;24.84;75.09;98964.94;6097616;23;20159;-85
2022/06/26 06:40:14;;;;;;;6.03;2.87;;;;;;;25.01;75.54;98958.50;6098257;23;20482;-85
2022/06/26 06:42:43;;;;;;;10.57;3.07;;;;;;;25.21;75.23;98960.75;6098547;23;20155;-85
2022/06/26 06:45:10;;;;;;;6.97;3.40;;;;;;;25.13;75.02;98963.47;6097915;23;20159;-85
2022/06/26 06:47:36;;;;;;;5.57;3.60;;;;;;;25.23;74.73;98951.50;6097803;23;20207;-84
2022/06/26 06:50:02;;;;;;;4.00;2.30;;;;;;;25.40;75.36;98954.88;6098162;23;20152;-85
2022/06/26 06:52:27;;;;;;;9.70;3.60;;;;;;;25.54;75.13;98949.63;6098442;23;20156;-85
2022/06/26 06:54:53;;;;;;;4.67;3.00;;;;;;;25.77;74.31;98952.28;6097846;23;20184;-85
2022/06/26 06:57:18;;;;;;;6.03;2.83;;;;;;;25.86;73.42;98953.88;6097679;23;20220;-93
2022/06/26 06:59:44;;;;;;;7.67;3.37;;;;;;;25.90;71.04;98959.69;6098403;23;20167;-93
2022/06/26 07:02:09;;;;;;;5.27;3.20;;;;;;;25.81;71.77;98956.28;6098313;23;20227;-92
2022/06/26 07:04:35;;;;;;;5.20;3.00;;;;;;;25.98;70.03;98959.63;6073274;23;20180;-94
2022/06/26 07:07:01;;;;;;;6.20;2.97;;;;;;;26.13;71.44;98964.03;6098144;23;20188;-92
2022/06/26 07:09:27;;;;;;;6.33;3.00;;;;;;;26.10;66.98;98964.38;6097932;23;20252;-93
2022/06/26 07:11:52;;;;;;;4.80;2.90;;;;;;;26.23;69.08;98966.47;6072970;23;20157;-94
2022/06/26 07:14:18;;;;;;;7.30;2.83;;;;;;;26.59;67.36;98964.72;6073039;23;20163;-93
2022/06/26 07:16:43;;;;;;;4.57;2.60;;;;;;;26.70;66.57;98955.34;6073391;23;20176;-95
2022/06/26 07:19:09;;;;;;;4.65;2.03;;;;;;;27.03;66.17;98951.22;6073039;23;20160;-94
2022/06/26 07:21:34;;;;;;;5.05;2.38;;;;;;;27.32;63.70;98961.91;6073389;23;20460;-94
2022/06/26 07:24:00;;;;;;;3.67;2.35;;;;;;;27.55;64.42;98955.50;6073138;23;20184;-92
2022/06/26 07:26:26;;;;;;;4.07;2.58;;;;;;;27.96;63.00;98954.63;6097920;23;20181;-93
2022/06/26 07:28:55;;;;;;;4.10;2.30;;;;;;;27.97;59.70;98956.31;6072943;23;20243;-93
2022/06/26 07:31:20;;;;;;;2.72;1.60;;;;;;;27.96;59.25;98954.63;6072381;23;20198;-94
2022/06/26 07:36:29;;;;;;;3.33;2.17;;;;;;;28.25;56.66;98953.63;6098619;23;20167;-93
2022/06/26 07:38:55;;;;;;;3.90;1.75;;;;;;;28.64;58.43;98943.09;6097847;23;20152;-94
2022/06/26 07:41:21;;;;;;;3.88;1.75;;;;;;;29.05;56.42;98950.31;6072877;23;20156;-92
2022/06/26 07:43:47;;;;;;;2.90;1.77;;;;;;;29.17;54.37;98951.38;6072694;23;20220;-93
2022/06/26 07:46:12;;;;;;;3.95;1.90;;;;;;;29.47;55.42;98950.06;6073008;23;20604;-93
2022/06/26 07:48:38;;;;;;;2.92;1.65;;;;;;;29.41;53.30;98952.72;6098668;23;20148;-92
2022/06/26 07:51:03;;;;;;;4.70;2.33;;;;;;;29.69;55.94;98956.91;6097813;23;20152;-92
2022/06/26 07:53:28;;;;;;;3.92;1.70;;;;;;;30.06;54.54;98963.59;6072822;23;20157;-92
2022/06/26 07:55:54;;;;;;;3.97;1.70;;;;;;;30.16;50.27;98965.91;6097598;23;20145;-92
2022/06/26 07:58:20;;;;;;;4.28;1.73;;;;;;;30.03;50.74;98965.91;6073057;23;20159;-94
2022/06/26 08:00:46;;;;;;;2.70;1.67;;;;;;;30.27;50.43;98968.78;6072087;23;20167;-93
2022/06/26 08:03:14;;;;;;;3.40;1.95;;;;;;;30.11;50.76;98963.00;6097602;23;20196;-92
2022/06/26 08:05:40;;;;;;;3.33;1.90;;;;;;;29.97;51.84;98961.31;6073001;23;20217;-94
2022/06/26 08:08:07;;;;;;;4.68;1.52;;;;;;;30.18;49.71;98961.94;6097646;23;20157;-93
2022/06/26 08:10:33;;;;;;;3.25;1.80;;;;;;;30.31;49.81;98966.50;6072721;23;20588;-93
2022/06/26 08:12:58;;;;;;;4.38;1.60;;;;;;;30.51;50.58;98967.31;6072675;23;20610;-93
2022/06/26 08:15:24;;;;;;;3.05;1.80;;;;;;;30.57;49.84;98969.19;6072193;23;20156;-94
2022/06/26 08:17:50;;;;;;;2.83;1.50;;;;;;;30.40;49.12;98963.38;6097523;23;20144;-93
2022/06/26 08:20:16;;;;;;;5.38;1.63;;;;;;;30.81;49.57;98963.06;6097424;23;20223;-93
2022/06/26 08:22:41;;;;;;;3.17;1.52;;;;;;;30.93;47.01;98964.06;6072383;23;20498;-93
2022/06/26 08:25:08;;;;;;;3.03;1.75;;;;;;;30.88;48.39;98965.72;6072765;23;20156;-93
2022/06/26 08:27:33;;;;;;;4.70;2.22;;;;;;;30.91;46.27;98965.34;6072539;23;20188;-93
2022/06/26 08:29:59;;;;;;;3.97;2.15;;;;;;;30.72;46.71;98966.19;6072545;23;20493;-93
2022/06/26 08:32:24;;;;;;;4.80;1.67;;;;;;;30.49;48.30;98979.38;6097421;23;20144;-93
2022/06/26 08:34:50;;;;;;;3.70;1.90;;;;;;;30.53;48.29;98965.22;6072354;23;20548;-93
2022/06/26 08:37:16;;;;;;;4.18;2.05;;;;;;;30.71;48.67;98962.69;6072040;23;20166;-93
2022/06/26 08:39:42;;;;;;;2.85;1.60;;;;;;;30.63;46.66;98960.22;6072548;23;20156;-94
2022/06/26 08:42:09;;;;;;;6.25;1.48;;;;;;;30.60;46.32;98957.94;6072516;23;20163;-93
2022/06/26 08:44:41;;;;;;;2.63;1.67;;;;;;;30.76;47.20;98962.88;6072366;23;20244;-94
2022/06/26 08:47:10;;;;;;;3.05;1.77;;;;;;;31.09;46.73;98962.75;6072741;23;20210;-94
2022/06/26 08:49:36;;;;;;;4.40;1.88;;;;;;;31.25;46.77;98951.44;6097861;23;20179;-94
2022/06/26 08:52:01;;;;;;;3.67;1.88;;;;;;;31.42;45.69;98951.75;6097098;23;20157;-94
2022/06/26 08:54:29;;;;;;;3.67;1.65;;;;;;;31.60;44.26;98960.00;6070915;23;20160;-92
2022/06/26 08:56:54;;;;;;;2.15;1.30;;;;;;;31.64;43.41;98961.19;6097085;23;20231;-93
2022/06/26 08:59:20;;;;;;;3.20;1.55;;;;;;;31.48;44.44;98967.16;6097516;23;20243;-93
2022/06/26 09:01:46;;;;;;;4.38;2.00;;;;;;;31.81;43.66;98969.63;6073947;23;20156;-94
2022/06/26 09:04:13;;;;;;;2.58;1.63;;;;;;;31.93;43.22;98965.16;6073569;23;20234;-94
2022/06/26 09:06:40;;;;;;;3.45;1.73;;;;;;;32.12;45.30;98973.16;6073628;23;20625;-93
2022/06/26 09:09:14;;;;;;;3.55;1.65;;;;;;;32.50;43.89;98972.13;6074123;23;20235;-93
2022/06/26 09:11:41;;;;;;;4.10;2.00;;;;;;;32.34;41.87;98978.16;6099495;23;20223;-92
2022/06/26 09:14:07;;;;;;;4.55;1.77;;;;;;;31.98;42.04;98974.28;6074358;23;20163;-93
2022/06/26 09:16:33;;;;;;;4.82;2.03;;;;;;;31.95;42.76;98969.28;6074158;23;20210;-93
2022/06/26 09:19:09;;;;;;;5.07;2.13;;;;;;;32.05;42.41;98971.56;6074127;23;20172;-93
2022/06/26 09:21:34;;;;;;;3.17;1.80;;;;;;;32.18;42.42;98977.66;6099008;23;20152;-92
2022/06/26 09:24:00;;;;;;;4.82;1.98;;;;;;;32.48;41.23;98971.53;6074144;23;20167;-93
2022/06/26 09:26:25;;;;;;;7.03;2.25;;;;;;;32.29;41.94;98975.28;6074145;23;20192;-92
2022/06/26 09:28:51;;;;;;;7.28;2.90;;;;;;;32.15;42.29;98969.97;6099499;23;20153;-94
2022/06/26 09:31:21;;;;;;;5.65;2.53;;;;;;;32.03;41.97;98969.06;6098933;23;20156;-93
2022/06/26 09:33:47;;;;;;;4.95;2.50;;;;;;;32.08;41.96;98979.22;6074147;23;20156;-93
2022/06/26 09:36:18;;;;;;;4.35;2.17;;;;;;;31.97;42.60;98969.88;6073937;23;20171;-94
2022/06/26 09:38:51;;;;;;;3.88;2.00;;;;;;;32.05;44.04;98966.94;6099101;23;20156;-92
2022/06/26 09:41:27;;;;;;;3.50;2.10;;;;;;;32.13;43.04;98972.09;6073913;23;20243;-93
2022/06/26 09:43:55;;;;;;;2.42;1.55;;;;;;;32.10;43.41;98971.72;6098856;23;20211;-93
2022/06/26 09:46:31;;;;;;;6.93;2.22;;;;;;;32.13;42.57;98971.25;6073916;23;20191;-93
2022/06/26 09:48:58;;;;;;;4.78;2.40;;;;;;;32.08;41.95;98968.38;6073382;23;20227;-93
2022/06/26 09:51:24;;;;;;;3.88;2.20;;;;;;;32.20;42.44;98966.59;6099037;23;20231;-93
2022/06/26 09:53:50;;;;;;;7.85;1.98;;;;;;;32.18;41.94;98955.97;6073968;23;20232;-95
2022/06/26 09:56:16;;;;;;;5.55;2.03;;;;;;;32.10;41.75;98955.44;6073797;23;20660;-95
2022/06/26 09:58:43;;;;;;;5.15;1.83;;;;;;;32.14;42.89;98954.78;6073769;23;20184;-94
2022/06/26 10:06:43;;;;;;;3.70;2.47;;;;;;;32.43;41.96;98952.38;6098950;23;20183;-94
2022/06/26 10:09:10;;;;;;;3.97;2.20;;;;;;;32.52;41.78;98956.47;6073536;23;20157;-95
2022/06/26 10:11:37;;;;;;;4.53;2.20;;;;;;;32.49;42.04;98957.75;6073306;23;20239;-95
2022/06/26 10:14:10;;;;;;;4.70;2.05;;;;;;;32.59;41.95;98949.13;6073774;23;20243;-94
2022/06/26 10:16:50;;;;;;;3.05;1.58;;;;;;;32.45;42.64;98953.81;6074966;23;20152;-93
2022/06/26 10:19:25;;;;;;;4.18;2.30;;;;;;;32.77;42.95;98944.50;6073798;23;20156;-94
2022/06/26 10:21:51;;;;;;;3.42;1.75;;;;;;;32.92;42.54;98944.09;6073701;23;20155;-94
2022/06/26 10:24:17;;;;;;;6.45;2.38;;;;;;;32.91;41.04;98937.03;6073688;23;20160;-94
2022/06/26 10:26:58;;;;;;;4.28;2.55;;;;;;;32.86;40.80;98941.50;6074066;23;20639;-93
2022/06/26 10:29:38;;;;;;;3.78;1.98;;;;;;;32.63;41.62;98947.59;6073287;23;20557;-94
2022/06/26 10:32:06;;;;;;;3.58;2.33;;;;;;;32.44;40.71;98940.50;6073707;23;20176;-93
2022/06/26 10:34:33;;;;;;;3.03;1.83;;;;;;;32.57;39.99;98940.38;6073380;23;20486;-93
2022/06/26 10:37:07;;;;;;;4.75;2.38;;;;;;;32.77;42.20;98935.53;6073539;23;20153;-95
2022/06/26 10:39:53;;;;;;;4.40;2.30;;;;;;;32.71;41.69;98936.44;6073527;23;20164;-94
2022/06/26 10:45:18;;;;;;;4.18;2.25;;;;;;;32.48;41.88;98931.66;6098574;23;20211;-94
2022/06/26 10:47:50;;;;;;;5.32;2.83;;;;;;;32.85;41.31;98927.09;6073716;23;20172;-93
2022/06/26 10:50:34;;;;;;;7.32;2.63;;;;;;;33.17;40.60;98917.69;6073486;23;20808;-94
2022/06/26 10:53:21;;;;;;;6.95;3.10;;;;;;;33.16;39.61;98924.19;6098420;23;20219;-92
2022/06/26 10:55:46;;;;;;;4.10;2.10;;;;;;;33.37;39.28;98915.50;6072862;23;20589;-94
2022/06/26 10:58:21;;;;;;;8.32;2.30;;;;;;;33.59;39.16;98913.13;6073407;23;20247;-94
2022/06/26 11:00:46;;;;;;;10.10;1.92;;;;;;;33.90;39.02;98911.97;6073372;23;20148;-94
2022/06/26 11:03:18;;;;;;;6.05;2.60;;;;;;;33.70;39.20;98922.34;6073174;23;20248;-93
2022/06/26 11:05:53;;;;;;;2.67;1.65;;;;;;;33.64;39.29;98917.84;6073440;23;20171;-93
2022/06/26 11:08:27;;;;;;;3.13;1.67;;;;;;;33.44;39.18;98925.47;6073598;23;20179;-93
2022/06/26 11:10:57;;;;;;;11.15;2.90;;;;;;;33.45;39.57;98929.81;6073820;23;20149;-93
2022/06/26 11:13:23;;;;;;;4.10;2.42;;;;;;;33.30;40.43;98928.38;6073230;23;20168;-93
2022/06/26 11:15:49;;;;;;;5.88;2.17;;;;;;;33.15;39.19;98927.94;6073298;23;20588;-94
2022/06/26 11:18:15;;;;;;;3.80;1.83;;;;;;;33.20;39.30;98925.34;6073008;23;20156;-92
2022/06/26 11:20:51;;;;;;;3.75;1.77;;;;;;;33.25;40.15;98922.81;6073052;23;20184;-91
2022/06/26 11:23:19;;;;;;;3.35;2.00;;;;;;;33.45;39.61;98929.81;6073190;23;20144;-93
2022/06/26 11:25:46;;;;;;;6.45;2.58;;;;;;;33.33;37.09;98922.44;6072901;23;20228;-93
2022/06/26 11:28:12;;;;;;;4.43;1.90;;;;;;;33.32;38.19;98933.56;6072953;23;20164;-92
2022/06/26 11:30:42;;;;;;;4.00;1.98;;;;;;;33.24;37.95;98926.56;6072977;23;20228;-92
2022/06/26 11:33:09;;;;;;;3.92;2.00;;;;;;;33.11;37.18;98936.78;6073083;23;20172;-92
2022/06/26 11:35:35;;;;;;;4.40;1.83;;;;;;;33.21;38.80;98932.47;6073057;23;20185;-93
2022/06/26 11:38:15;;;;;;;3.22;2.22;;;;;;;33.47;38.15;98935.84;6097957;23;20148;-91
2022/06/26 11:40:45;;;;;;;3.38;1.98;;;;;;;33.54;38.50;98929.28;6097926;23;20152;-93
2022/06/26 11:43:12;;;;;;;2.70;1.77;;;;;;;33.33;39.51;98919.75;6073000;23;20152;-95
2022/06/26 11:45:39;;;;;;;4.88;1.83;;;;;;;33.23;38.36;98919.47;6072695;23;20152;-93
2022/06/26 11:48:12;;;;;;;5.95;3.15;;;;;;;33.32;38.99;98923.53;6072714;23;20171;-95
2022/06/26 11:50:39;;;;;;;3.97;2.15;;;;;;;33.24;39.40;98921.13;6072741;23;20144;-93
2022/06/26 11:53:06;;;;;;;6.38;2.60;;;;;;;33.10;39.87;98910.72;6098154;23;20584;-93